Time;durP1;ratioP1;P1;durP2;ratioP2;P2;SDS_P1;SDS_P2;PMS_P1;PMS_P2;Temp;Humidity;BMP_temperature;BMP_pressure;BME280_temperature;BME280_humidity;BME280_pressure;Samples;Min_cycle;Max_cycle;Signal;HPM_P1;HPM_P2
2023/07/12 00:00:47;;;;;;;4.33;3.87;;;24.90;99.90;;;;;;5009966;28;20466;-66
2023/07/12 00:03:14;;;;;;;6.83;4.50;;;24.90;99.90;;;;;;5013198;28;20954;-66
2023/07/12 00:05:42;;;;;;;5.23;4.60;;;25.00;99.90;;;;;;5015207;28;20954;-65
2023/07/12 00:08:28;;;;;;;8.20;4.60;;;25.00;99.90;;;;;;5014656;28;20479;-66
2023/07/12 00:10:57;;;;;;;5.33;3.83;;;25.00;99.90;;;;;;5012599;28;20482;-65
2023/07/12 00:13:24;;;;;;;6.23;5.50;;;25.10;99.90;;;;;;5012331;28;21142;-66
2023/07/12 00:15:50;;;;;;;6.60;3.97;;;25.10;99.90;;;;;;5011156;28;20432;-65
2023/07/12 00:18:18;;;;;;;5.57;3.67;;;25.10;99.90;;;;;;5016548;28;20459;-65
2023/07/12 00:20:44;;;;;;;4.70;4.20;;;25.20;99.90;;;;;;5014294;28;20450;-66
2023/07/12 00:23:12;;;;;;;6.13;4.03;;;25.20;99.90;;;;;;5011521;28;20446;-65
2023/07/12 00:25:38;;;;;;;7.50;4.60;;;25.20;99.90;;;;;;5016975;28;20434;-66
2023/07/12 00:28:23;;;;;;;5.30;3.93;;;25.30;99.90;;;;;;5014487;28;20458;-66
2023/07/12 00:30:51;;;;;;;5.80;5.30;;;25.30;99.90;;;;;;5008842;28;20502;-65
2023/07/12 00:33:18;;;;;;;4.90;3.93;;;25.30;99.90;;;;;;5012455;28;20439;-65
2023/07/12 00:35:43;;;;;;;6.47;4.43;;;25.30;99.90;;;;;;5014801;28;20455;-65
2023/07/12 00:38:19;;;;;;;7.03;3.80;;;25.30;99.90;;;;;;5011427;28;20969;-66
2023/07/12 00:41:16;;;;;;;7.33;4.40;;;25.40;99.90;;;;;;5013309;28;20271;-65
2023/07/12 00:44:00;;;;;;;5.87;4.10;;;25.30;99.90;;;;;;5017011;28;20427;-65
2023/07/12 00:46:35;;;;;;;6.43;3.67;;;25.30;99.90;;;;;;5011302;28;20893;-65
2023/07/12 00:49:01;;;;;;;6.07;3.53;;;25.20;99.90;;;;;;5019385;28;21010;-65
2023/07/12 00:51:46;;;;;;;5.20;4.03;;;25.30;99.90;;;;;;5011441;28;20470;-65
2023/07/12 00:54:16;;;;;;;5.30;4.43;;;25.20;99.90;;;;;;5016747;28;20247;-65
2023/07/12 00:56:44;;;;;;;8.93;3.87;;;25.30;99.90;;;;;;5013747;28;20944;-65
2023/07/12 00:59:17;;;;;;;6.30;3.80;;;25.30;99.90;;;;;;5013046;28;20565;-65
2023/07/12 01:01:44;;;;;;;6.83;3.90;;;25.30;99.90;;;;;;5010799;28;20424;-65
2023/07/12 01:04:14;;;;;;;7.77;3.83;;;25.30;99.90;;;;;;5008766;28;20443;-65
2023/07/12 01:06:40;;;;;;;6.67;3.93;;;25.40;99.90;;;;;;5009571;28;20977;-65
2023/07/12 01:09:11;;;;;;;5.60;3.40;;;25.40;99.90;;;;;;5016828;28;20451;-65
2023/07/12 01:11:38;;;;;;;4.73;3.70;;;25.40;99.90;;;;;;5018908;28;20223;-65
2023/07/12 01:14:12;;;;;;;4.57;3.27;;;25.40;99.90;;;;;;5016322;28;20436;-65
2023/07/12 01:16:39;;;;;;;4.63;3.70;;;25.50;99.90;;;;;;5019000;28;21206;-65
2023/07/12 01:19:04;;;;;;;5.33;4.03;;;25.40;99.90;;;;;;5017414;28;20450;-65
2023/07/12 01:21:33;;;;;;;6.03;4.07;;;25.30;99.90;;;;;;5015509;28;20459;-65
2023/07/12 01:23:59;;;;;;;5.07;3.70;;;25.10;99.90;;;;;;5017262;28;20584;-65
2023/07/12 01:26:29;;;;;;;6.67;4.40;;;25.20;99.90;;;;;;5013258;28;21693;-65
2023/07/12 01:28:57;;;;;;;4.97;4.20;;;25.10;99.90;;;;;;5012560;28;20463;-65
2023/07/12 01:31:24;;;;;;;5.03;4.30;;;25.20;99.90;;;;;;5015082;28;20455;-65
2023/07/12 01:33:50;;;;;;;7.20;4.10;;;25.20;99.90;;;;;;5022788;28;20453;-64
2023/07/12 01:36:17;;;;;;;6.90;4.50;;;25.20;99.90;;;;;;5021774;28;20570;-66
2023/07/12 01:38:43;;;;;;;6.53;4.40;;;25.20;99.90;;;;;;5017777;28;20461;-65
2023/07/12 01:41:08;;;;;;;6.83;4.40;;;25.20;99.90;;;;;;5017647;28;20955;-65
2023/07/12 01:43:34;;;;;;;4.33;3.53;;;25.20;99.90;;;;;;5019791;28;20188;-65
2023/07/12 01:46:00;;;;;;;4.20;3.73;;;25.20;99.90;;;;;;5018037;28;20316;-65
2023/07/12 01:48:25;;;;;;;5.17;4.00;;;25.20;99.90;;;;;;5015626;28;20228;-66
2023/07/12 01:50:51;;;;;;;4.70;3.87;;;25.10;99.90;;;;;;5015816;28;20239;-65
2023/07/12 01:53:17;;;;;;;4.50;3.90;;;25.10;99.90;;;;;;5020058;28;20188;-65
2023/07/12 01:55:43;;;;;;;4.50;4.10;;;25.10;99.90;;;;;;5016977;28;20180;-65
2023/07/12 01:58:09;;;;;;;4.07;3.33;;;25.00;99.90;;;;;;5012186;28;20216;-65
2023/07/12 02:00:35;;;;;;;4.13;3.30;;;25.00;99.90;;;;;;5013285;28;20443;-65
2023/07/12 02:03:01;;;;;;;5.40;4.73;;;24.90;99.90;;;;;;5013175;28;20909;-65
2023/07/12 02:05:27;;;;;;;5.37;3.43;;;25.00;99.90;;;;;;5012636;28;20879;-65
2023/07/12 02:07:56;;;;;;;5.83;4.10;;;25.00;99.90;;;;;;5019335;28;20181;-65
2023/07/12 02:10:23;;;;;;;4.73;3.50;;;25.00;99.90;;;;;;5010300;28;20625;-65
2023/07/12 02:12:49;;;;;;;5.27;4.53;;;25.10;99.90;;;;;;5014900;28;20431;-65
2023/07/12 02:15:15;;;;;;;8.30;3.83;;;25.10;99.90;;;;;;5007059;28;20519;-65
2023/07/12 02:17:41;;;;;;;5.10;3.97;;;25.00;99.90;;;;;;5018341;28;20428;-65
2023/07/12 02:20:08;;;;;;;4.40;3.67;;;25.00;99.90;;;;;;5011363;28;21022;-65
2023/07/12 02:22:35;;;;;;;5.00;4.00;;;24.90;99.90;;;;;;5013779;28;21129;-65
2023/07/12 02:25:02;;;;;;;6.47;4.50;;;24.90;99.90;;;;;;5019478;28;20439;-65
2023/07/12 02:27:28;;;;;;;6.97;4.50;;;24.90;99.90;;;;;;5012519;28;20462;-65
2023/07/12 02:29:53;;;;;;;6.07;5.10;;;24.80;99.90;;;;;;5014056;28;20468;-65
2023/07/12 02:32:22;;;;;;;5.60;4.70;;;24.80;99.90;;;;;;5012511;28;20244;-65
2023/07/12 02:34:49;;;;;;;5.67;5.00;;;24.80;99.90;;;;;;5018210;28;20291;-65
2023/07/12 02:37:16;;;;;;;7.80;4.67;;;24.70;99.90;;;;;;5016497;28;20442;-64
2023/07/12 02:39:42;;;;;;;5.13;4.30;;;24.60;99.90;;;;;;5009856;28;20453;-65
2023/07/12 02:42:08;;;;;;;7.50;4.80;;;24.50;99.90;;;;;;5028707;28;20973;-65
2023/07/12 02:44:34;;;;;;;5.67;4.37;;;24.40;99.90;;;;;;5016623;28;20556;-65
2023/07/12 02:46:59;;;;;;;5.40;4.90;;;24.40;99.90;;;;;;5016703;28;20204;-65
2023/07/12 02:49:25;;;;;;;9.37;4.73;;;24.40;99.90;;;;;;5012780;28;20295;-67
2023/07/12 02:51:51;;;;;;;8.03;5.50;;;24.30;99.90;;;;;;5013106;28;20212;-66
2023/07/12 02:54:16;;;;;;;5.90;4.77;;;24.20;99.90;;;;;;5016952;28;20451;-67
2023/07/12 02:56:42;;;;;;;5.83;4.77;;;24.20;99.90;;;;;;5015972;28;20183;-66
2023/07/12 02:59:07;;;;;;;7.03;6.20;;;24.10;99.90;;;;;;5013754;28;20204;-66
2023/07/12 03:01:33;;;;;;;7.60;5.43;;;24.10;99.90;;;;;;5010081;28;20190;-67
2023/07/12 03:03:59;;;;;;;9.00;5.87;;;24.10;99.90;;;;;;5018697;28;20621;-66
2023/07/12 03:06:24;;;;;;;5.30;4.80;;;24.10;99.90;;;;;;5012771;28;20263;-66
2023/07/12 03:08:50;;;;;;;9.90;5.67;;;24.10;99.90;;;;;;5019958;28;20208;-66
2023/07/12 03:11:16;;;;;;;6.87;5.30;;;24.00;99.90;;;;;;5010009;28;20208;-66
2023/07/12 03:13:41;;;;;;;7.67;5.20;;;24.00;99.90;;;;;;5018060;28;20200;-64
2023/07/12 03:16:08;;;;;;;10.33;4.83;;;24.00;99.90;;;;;;5011251;28;20195;-64
2023/07/12 03:18:34;;;;;;;6.10;4.87;;;24.00;99.90;;;;;;5015947;28;20200;-64
2023/07/12 03:21:02;;;;;;;6.37;4.40;;;24.00;99.90;;;;;;5015328;28;20945;-66
2023/07/12 03:23:30;;;;;;;5.97;4.97;;;23.90;99.90;;;;;;5015027;28;20647;-66
2023/07/12 03:25:56;;;;;;;5.33;4.77;;;24.00;99.90;;;;;;5012353;28;20854;-66
2023/07/12 03:28:21;;;;;;;6.37;4.77;;;24.10;99.90;;;;;;5016590;28;20516;-65
2023/07/12 03:31:02;;;;;;;9.03;4.90;;;24.10;99.90;;;;;;5010323;28;20462;-65
2023/07/12 03:33:29;;;;;;;6.90;4.83;;;24.00;99.90;;;;;;5015389;28;20288;-66
2023/07/12 03:35:55;;;;;;;5.20;4.60;;;23.90;99.90;;;;;;5012024;28;20435;-66
2023/07/12 03:38:24;;;;;;;6.03;4.57;;;23.90;99.90;;;;;;5011948;28;20459;-66
2023/07/12 03:40:54;;;;;;;7.27;5.00;;;23.80;99.90;;;;;;5014232;28;20466;-65
2023/07/12 03:43:20;;;;;;;9.60;4.97;;;23.80;99.90;;;;;;5010557;28;20786;-65
2023/07/12 03:45:45;;;;;;;6.93;5.03;;;23.80;99.90;;;;;;5010540;28;20431;-65
2023/07/12 03:48:11;;;;;;;11.53;5.50;;;23.70;99.90;;;;;;5014170;28;20213;-65
2023/07/12 03:50:46;;;;;;;8.07;4.57;;;23.80;99.90;;;;;;5012520;28;20204;-66
2023/07/12 03:53:11;;;;;;;4.90;4.40;;;23.80;99.90;;;;;;5011520;28;20177;-65
2023/07/12 03:55:41;;;;;;;6.97;5.03;;;23.80;99.90;;;;;;5011161;28;20443;-65
2023/07/12 03:58:08;;;;;;;5.40;4.70;;;23.70;99.90;;;;;;5010960;28;20703;-65
2023/07/12 04:00:34;;;;;;;5.20;4.50;;;23.50;99.90;;;;;;5013884;28;20823;-65
2023/07/12 04:02:59;;;;;;;8.03;4.63;;;23.70;99.90;;;;;;5014346;28;20436;-65
2023/07/12 04:05:25;;;;;;;8.83;4.60;;;23.80;99.90;;;;;;5014741;28;20199;-65
2023/07/12 04:07:52;;;;;;;4.90;4.40;;;23.80;99.90;;;;;;5013512;28;20282;-65
2023/07/12 04:10:18;;;;;;;8.23;4.90;;;23.90;99.90;;;;;;5007351;28;20301;-65
2023/07/12 04:12:43;;;;;;;7.60;4.90;;;23.90;99.90;;;;;;5013544;28;20569;-66
2023/07/12 04:15:09;;;;;;;7.20;4.70;;;23.90;99.90;;;;;;5012153;28;20428;-66
2023/07/12 04:17:35;;;;;;;7.33;4.73;;;23.90;99.90;;;;;;5013808;28;20180;-65
2023/07/12 04:20:01;;;;;;;9.33;4.63;;;23.90;99.90;;;;;;5014445;28;20462;-65
2023/07/12 04:22:27;;;;;;;8.07;5.17;;;23.90;99.90;;;;;;5011007;28;20219;-65
2023/07/12 04:24:53;;;;;;;6.23;4.53;;;24.00;99.90;;;;;;5015536;28;20463;-65
2023/07/12 04:27:18;;;;;;;8.33;4.87;;;23.90;99.90;;;;;;5014347;28;20184;-65
2023/07/12 04:29:45;;;;;;;9.27;5.03;;;23.90;99.90;;;;;;5012722;28;20481;-65
2023/07/12 04:32:10;;;;;;;5.67;4.80;;;23.90;99.90;;;;;;5013130;28;20315;-65
2023/07/12 04:34:36;;;;;;;7.57;4.40;;;23.90;99.90;;;;;;5012334;28;20502;-65
2023/07/12 04:37:03;;;;;;;5.83;4.20;;;23.90;99.90;;;;;;5013824;28;20196;-65
2023/07/12 04:39:28;;;;;;;6.90;4.97;;;23.90;99.90;;;;;;5010831;28;20247;-66
2023/07/12 04:41:54;;;;;;;7.63;4.77;;;23.90;99.90;;;;;;5010634;28;20878;-65
2023/07/12 04:44:19;;;;;;;8.80;4.90;;;23.90;99.90;;;;;;5008094;28;20267;-65
2023/07/12 04:46:45;;;;;;;8.27;5.47;;;23.90;99.90;;;;;;5014807;28;20230;-65
2023/07/12 04:49:11;;;;;;;8.20;5.50;;;23.90;99.90;;;;;;5014973;28;20274;-65
2023/07/12 04:51:36;;;;;;;7.47;5.90;;;23.70;99.90;;;;;;5014015;28;20295;-65
2023/07/12 04:54:02;;;;;;;9.60;5.17;;;23.80;99.90;;;;;;5009963;28;20194;-65
2023/07/12 04:56:29;;;;;;;7.77;4.80;;;23.80;99.90;;;;;;5009219;28;20177;-65
2023/07/12 04:58:54;;;;;;;7.50;5.00;;;23.70;99.90;;;;;;5011733;28;20625;-65
2023/07/12 05:01:21;;;;;;;8.00;5.43;;;23.80;99.90;;;;;;5011438;28;20430;-65
2023/07/12 05:03:47;;;;;;;7.63;5.70;;;23.90;99.90;;;;;;5013828;28;20339;-65
2023/07/12 05:06:13;;;;;;;5.50;4.77;;;23.80;99.90;;;;;;5017606;28;20962;-65
2023/07/12 05:08:39;;;;;;;6.87;4.53;;;23.80;99.90;;;;;;5013803;28;20451;-65
2023/07/12 05:11:05;;;;;;;6.20;4.80;;;23.80;99.90;;;;;;5014377;28;20474;-66
2023/07/12 05:13:30;;;;;;;9.70;5.80;;;23.90;99.90;;;;;;5017212;28;20193;-66
2023/07/12 05:15:56;;;;;;;7.73;4.97;;;23.90;99.90;;;;;;5010598;28;20238;-66
2023/07/12 05:18:22;;;;;;;9.33;5.90;;;23.90;99.90;;;;;;5017269;28;20201;-66
2023/07/12 05:20:49;;;;;;;9.17;4.90;;;24.00;99.90;;;;;;5008675;28;21291;-66
2023/07/12 05:23:15;;;;;;;13.93;5.70;;;24.00;99.90;;;;;;5009382;28;20212;-66
2023/07/12 05:25:48;;;;;;;9.20;5.80;;;24.00;99.90;;;;;;5009689;28;20444;-66
2023/07/12 05:28:14;;;;;;;9.00;5.30;;;24.10;99.90;;;;;;5010715;28;20213;-66
2023/07/12 05:30:40;;;;;;;8.53;5.50;;;24.10;99.90;;;;;;5011226;28;20550;-66
2023/07/12 05:33:05;;;;;;;8.60;5.27;;;24.10;99.90;;;;;;5012353;28;20173;-66
2023/07/12 05:35:31;;;;;;;11.70;5.10;;;24.10;99.90;;;;;;5012029;28;20876;-66
2023/07/12 05:37:57;;;;;;;9.67;5.70;;;24.20;99.90;;;;;;5009987;28;20299;-66
2023/07/12 05:40:24;;;;;;;7.53;5.23;;;24.20;99.90;;;;;;5014502;28;21135;-66
2023/07/12 05:42:50;;;;;;;8.33;6.20;;;24.20;99.90;;;;;;5013170;28;20380;-66
2023/07/12 05:45:15;;;;;;;9.83;6.37;;;24.20;99.90;;;;;;5013916;28;20431;-66
2023/07/12 05:47:47;;;;;;;10.27;6.70;;;24.10;99.90;;;;;;5019245;28;20211;-66
2023/07/12 05:50:16;;;;;;;6.40;5.80;;;24.00;99.90;;;;;;5017474;28;20249;-65
2023/07/12 05:52:41;;;;;;;8.77;5.37;;;24.10;99.90;;;;;;5013763;28;20439;-66
2023/07/12 05:55:10;;;;;;;13.50;6.10;;;24.20;99.90;;;;;;5016002;28;20443;-66
2023/07/12 05:57:35;;;;;;;12.47;5.77;;;24.30;99.90;;;;;;5017200;28;20185;-65
2023/07/12 06:00:02;;;;;;;7.57;6.60;;;24.30;99.90;;;;;;5017302;28;20462;-66
2023/07/12 06:02:27;;;;;;;9.03;5.87;;;24.30;99.90;;;;;;5018781;28;20176;-66
2023/07/12 06:04:53;;;;;;;7.57;5.20;;;24.30;99.90;;;;;;5018259;28;20488;-66
2023/07/12 06:07:19;;;;;;;9.30;5.50;;;24.30;99.90;;;;;;5021296;28;20208;-66
2023/07/12 06:09:44;;;;;;;6.70;5.40;;;24.30;99.90;;;;;;5021540;28;20226;-66
2023/07/12 06:12:10;;;;;;;10.93;6.10;;;24.30;99.90;;;;;;5003121;28;20223;-65
2023/07/12 06:14:37;;;;;;;8.17;6.20;;;24.40;99.90;;;;;;5018155;28;20185;-64
2023/07/12 06:17:03;;;;;;;9.20;5.77;;;24.50;99.90;;;;;;5021148;28;20423;-65
2023/07/12 06:19:29;;;;;;;10.50;6.13;;;24.50;99.90;;;;;;5020463;28;20453;-65
2023/07/12 06:21:55;;;;;;;11.73;6.13;;;24.40;99.90;;;;;;5018769;28;20429;-65
2023/07/12 06:24:20;;;;;;;8.67;5.00;;;24.50;99.90;;;;;;5021044;28;20185;-64
2023/07/12 06:26:46;;;;;;;7.43;5.73;;;24.50;99.90;;;;;;5012304;28;20329;-65
2023/07/12 06:29:11;;;;;;;9.30;6.47;;;24.50;99.90;;;;;;5013155;28;20243;-65
2023/07/12 06:31:37;;;;;;;10.80;6.00;;;24.60;99.90;;;;;;5015512;28;20254;-66
2023/07/12 06:34:03;;;;;;;10.67;5.40;;;24.60;99.90;;;;;;5012538;28;20306;-65
2023/07/12 06:36:30;;;;;;;8.47;5.53;;;24.70;99.90;;;;;;5014063;28;20184;-65
2023/07/12 06:38:56;;;;;;;8.10;5.70;;;24.70;99.90;;;;;;5018550;28;20551;-66
2023/07/12 06:41:22;;;;;;;9.70;5.90;;;24.70;99.90;;;;;;5019139;28;20431;-66
2023/07/12 06:43:47;;;;;;;6.10;5.00;;;24.70;99.90;;;;;;5014516;28;20188;-66
2023/07/12 06:46:14;;;;;;;7.60;5.63;;;24.70;99.90;;;;;;5014504;28;20191;-66
2023/07/12 06:48:39;;;;;;;6.00;5.40;;;24.70;99.90;;;;;;5016941;28;20212;-66
2023/07/12 06:51:05;;;;;;;9.07;6.10;;;24.70;99.90;;;;;;5018120;28;20462;-67
2023/07/12 06:53:31;;;;;;;10.20;6.00;;;24.80;99.90;;;;;;5023562;28;20176;-67
2023/07/12 06:55:56;;;;;;;5.40;4.53;;;24.80;99.90;;;;;;5019619;28;20443;-67
2023/07/12 06:58:22;;;;;;;6.13;5.00;;;24.80;99.90;;;;;;5015206;28;20288;-67
2023/07/12 07:00:47;;;;;;;8.73;4.83;;;24.80;99.90;;;;;;5014701;28;20598;-67
2023/07/12 07:03:15;;;;;;;8.57;5.43;;;24.80;99.90;;;;;;5016615;28;20188;-67
2023/07/12 07:05:44;;;;;;;12.73;5.73;;;24.70;99.90;;;;;;5017089;28;20512;-67
2023/07/12 07:08:11;;;;;;;5.53;4.73;;;24.80;99.90;;;;;;5011107;28;20463;-68
2023/07/12 07:10:37;;;;;;;8.40;5.10;;;25.00;99.90;;;;;;5016770;28;20459;-68
2023/07/12 07:13:02;;;;;;;6.67;5.03;;;25.00;99.90;;;;;;5012806;28;20547;-68
2023/07/12 07:15:28;;;;;;;10.33;5.70;;;25.10;99.90;;;;;;5007171;28;20203;-69
2023/07/12 07:17:54;;;;;;;7.73;4.67;;;25.10;99.90;;;;;;5010713;28;20199;-68
2023/07/12 07:20:20;;;;;;;14.23;5.50;;;25.10;99.90;;;;;;5014046;28;20267;-69
2023/07/12 07:22:45;;;;;;;9.57;4.90;;;25.20;99.90;;;;;;5016228;28;20184;-68
2023/07/12 07:25:11;;;;;;;10.03;5.77;;;25.30;99.90;;;;;;5016912;28;20855;-69
2023/07/12 07:27:37;;;;;;;9.13;5.83;;;25.30;99.90;;;;;;5019059;28;20204;-69
2023/07/12 07:30:02;;;;;;;8.27;5.63;;;25.30;99.90;;;;;;5012891;28;20643;-69
2023/07/12 07:32:28;;;;;;;9.07;6.10;;;25.10;99.90;;;;;;5014891;28;20682;-69
2023/07/12 07:34:54;;;;;;;7.60;5.40;;;25.20;99.90;;;;;;5011738;28;20184;-67
2023/07/12 07:37:20;;;;;;;10.90;5.60;;;25.10;99.90;;;;;;5018741;28;20176;-67
2023/07/12 07:39:45;;;;;;;10.40;6.03;;;25.20;99.90;;;;;;5011623;28;20443;-69
2023/07/12 07:42:11;;;;;;;7.40;5.30;;;25.20;99.90;;;;;;5014712;28;20464;-68
2023/07/12 07:44:37;;;;;;;8.23;5.70;;;25.20;99.90;;;;;;5015092;28;20189;-68
2023/07/12 07:47:03;;;;;;;10.53;5.13;;;25.20;99.90;;;;;;5012774;28;20872;-68
2023/07/12 07:49:29;;;;;;;7.73;4.93;;;25.20;99.90;;;;;;5017640;28;20440;-68
2023/07/12 07:51:54;;;;;;;11.40;5.53;;;25.20;99.90;;;;;;5017246;28;20466;-68
2023/07/12 07:54:20;;;;;;;10.30;5.30;;;25.20;99.90;;;;;;5013693;28;20192;-68
2023/07/12 07:56:48;;;;;;;7.07;5.40;;;25.20;99.90;;;;;;5007886;28;20200;-67
2023/07/12 07:59:15;;;;;;;11.33;5.70;;;25.10;99.90;;;;;;5015371;28;20297;-67
2023/07/12 08:01:40;;;;;;;8.60;5.10;;;25.10;99.90;;;;;;5011426;28;20442;-67
2023/07/12 08:04:06;;;;;;;8.67;4.73;;;25.20;99.90;;;;;;5015442;28;20929;-67
2023/07/12 08:06:33;;;;;;;5.70;5.10;;;25.20;99.90;;;;;;5013348;28;20233;-67
2023/07/12 08:08:58;;;;;;;8.77;5.40;;;25.20;99.90;;;;;;5013479;28;20200;-68
2023/07/12 08:11:24;;;;;;;7.53;5.27;;;25.30;99.90;;;;;;5012360;28;21239;-68
2023/07/12 08:13:50;;;;;;;5.93;5.10;;;25.30;99.90;;;;;;5018329;28;20212;-68
2023/07/12 08:16:15;;;;;;;9.40;5.60;;;25.30;99.90;;;;;;5016093;28;20180;-68
2023/07/12 08:18:41;;;;;;;7.93;5.43;;;25.40;99.90;;;;;;5034799;28;20242;-69
2023/07/12 08:21:07;;;;;;;8.57;5.73;;;25.50;99.90;;;;;;5014750;28;20606;-67
2023/07/12 08:23:32;;;;;;;6.57;5.37;;;25.50;99.90;;;;;;5015502;28;20242;-68
2023/07/12 08:25:58;;;;;;;8.50;5.70;;;25.60;99.90;;;;;;5018291;28;20176;-70
2023/07/12 08:28:24;;;;;;;9.97;5.90;;;25.70;99.90;;;;;;5016853;28;20227;-69
2023/07/12 08:30:49;;;;;;;6.73;5.10;;;25.80;99.90;;;;;;5008906;28;20799;-68
2023/07/12 08:33:15;;;;;;;6.57;5.40;;;25.70;99.90;;;;;;5012946;28;20181;-70
2023/07/12 08:35:41;;;;;;;7.70;4.90;;;25.70;99.90;;;;;;5012194;28;20173;-69
2023/07/12 08:38:07;;;;;;;9.60;4.73;;;25.80;99.90;;;;;;5010972;28;20995;-67
2023/07/12 08:40:38;;;;;;;7.70;5.10;;;25.90;99.90;;;;;;5012717;28;20181;-70
2023/07/12 08:43:12;;;;;;;5.53;4.57;;;26.00;99.90;;;;;;5018281;28;20466;-68
2023/07/12 08:45:37;;;;;;;6.17;4.47;;;26.10;99.90;;;;;;5011974;28;20972;-68
2023/07/12 08:48:14;;;;;;;5.17;4.00;;;26.00;99.90;;;;;;5019476;28;20423;-69
2023/07/12 08:50:45;;;;;;;7.13;3.90;;;26.10;99.90;;;;;;5014127;28;20196;-69
2023/07/12 08:53:14;;;;;;;5.33;3.43;;;26.30;99.90;;;;;;5020544;28;20928;-68
2023/07/12 08:55:40;;;;;;;5.20;3.60;;;26.20;99.90;;;;;;5011315;28;20777;-67
2023/07/12 08:58:17;;;;;;;7.27;4.47;;;26.10;99.90;;;;;;5012967;28;20446;-68
2023/07/12 09:00:44;;;;;;;5.20;3.47;;;26.10;99.90;;;;;;5006913;28;20210;-68
2023/07/12 09:03:09;;;;;;;7.83;4.10;;;26.10;99.90;;;;;;5010711;28;20422;-68
2023/07/12 09:05:35;;;;;;;4.53;3.47;;;26.10;99.90;;;;;;5009846;28;20455;-68
2023/07/12 09:08:14;;;;;;;4.70;3.33;;;26.00;99.90;;;;;;5012141;28;20180;-68
2023/07/12 09:10:42;;;;;;;3.53;3.23;;;26.00;99.90;;;;;;5006048;28;20212;-70
2023/07/12 09:13:11;;;;;;;6.23;3.30;;;26.00;99.90;;;;;;5007665;28;20466;-71
2023/07/12 09:15:40;;;;;;;4.83;3.97;;;26.10;99.90;;;;;;5009896;28;20973;-72
2023/07/12 09:18:07;;;;;;;5.27;3.17;;;26.30;99.90;;;;;;5011989;28;20448;-73
2023/07/12 09:20:37;;;;;;;5.23;3.97;;;26.40;99.90;;;;;;5014645;28;20918;-71
2023/07/12 09:23:03;;;;;;;6.03;4.00;;;26.40;99.90;;;;;;5015893;28;20497;-71
2023/07/12 09:25:37;;;;;;;5.47;3.97;;;26.30;99.90;;;;;;5015732;28;21324;-71
2023/07/12 09:28:04;;;;;;;5.53;3.50;;;26.30;99.90;;;;;;5014199;28;20229;-71
2023/07/12 09:30:34;;;;;;;9.83;3.83;;;26.40;99.90;;;;;;5016035;28;20466;-71
2023/07/12 09:33:03;;;;;;;7.20;3.10;;;26.40;99.90;;;;;;5021641;28;20986;-71
2023/07/12 09:35:38;;;;;;;3.60;3.00;;;26.20;99.90;;;;;;5014561;28;20431;-71
2023/07/12 09:38:12;;;;;;;5.57;3.40;;;26.20;99.90;;;;;;5020180;28;20456;-71
2023/07/12 09:40:41;;;;;;;4.03;3.60;;;26.30;99.90;;;;;;5013148;28;20439;-71
2023/07/12 09:43:24;;;;;;;3.50;3.10;;;26.40;99.90;;;;;;5011345;28;20546;-69
2023/07/12 09:46:11;;;;;;;4.00;3.60;;;26.40;99.90;;;;;;5012749;28;20446;-69
2023/07/12 09:48:50;;;;;;;4.40;3.43;;;26.40;99.90;;;;;;5015944;28;20456;-69
2023/07/12 09:51:23;;;;;;;6.30;3.30;;;26.50;99.90;;;;;;5018079;28;20579;-70
2023/07/12 09:53:55;;;;;;;5.23;3.33;;;26.60;99.90;;;;;;5020023;28;20442;-70
2023/07/12 09:56:34;;;;;;;5.03;3.70;;;26.80;99.90;;;;;;5013111;28;20435;-69
2023/07/12 09:59:09;;;;;;;4.00;3.70;;;26.80;99.90;;;;;;5017247;28;20524;-71
2023/07/12 10:01:56;;;;;;;3.87;3.30;;;27.00;99.90;;;;;;5014345;28;20553;-71
2023/07/12 10:04:33;;;;;;;4.53;3.40;;;26.90;99.90;;;;;;5014948;28;20498;-71
2023/07/12 10:07:09;;;;;;;4.83;3.50;;;27.00;99.90;;;;;;5016807;28;20806;-71
2023/07/12 10:09:36;;;;;;;4.40;3.40;;;27.00;99.90;;;;;;5020441;28;20450;-70
2023/07/12 10:12:13;;;;;;;3.70;3.30;;;27.00;99.90;;;;;;5013106;28;20513;-68
2023/07/12 10:14:41;;;;;;;5.60;4.07;;;27.00;99.90;;;;;;5013809;28;20482;-67
2023/07/12 10:17:17;;;;;;;6.60;3.83;;;27.00;99.90;;;;;;5011845;28;20936;-69
2023/07/12 10:19:46;;;;;;;5.50;3.90;;;27.10;99.90;;;;;;5014760;28;20548;-70
2023/07/12 10:22:34;;;;;;;4.17;3.77;;;27.20;99.90;;;;;;5014926;28;20534;-71
2023/07/12 10:25:05;;;;;;;4.30;3.40;;;27.30;99.90;;;;;;5016951;28;20447;-71
2023/07/12 10:27:35;;;;;;;3.80;3.30;;;27.40;99.90;;;;;;5014835;28;20981;-71
2023/07/12 10:30:08;;;;;;;4.27;3.20;;;27.60;99.90;;;;;;5015241;28;20466;-71
2023/07/12 10:32:43;;;;;;;4.80;3.20;;;27.60;99.90;;;;;;5014709;28;20525;-68
2023/07/12 10:35:21;;;;;;;5.10;4.00;;;27.60;99.90;;;;;;5013960;28;20439;-68
2023/07/12 10:37:57;;;;;;;6.10;3.40;;;27.70;99.90;;;;;;5014995;28;20480;-70
2023/07/12 10:40:27;;;;;;;5.23;3.80;;;27.80;99.90;;;;;;5010410;28;20407;-70
2023/07/12 10:42:58;;;;;;;6.30;3.60;;;27.80;99.90;;;;;;5014859;28;20534;-70
2023/07/12 10:45:28;;;;;;;4.63;3.90;;;27.90;99.90;;;;;;5011761;28;20736;-70
2023/07/12 10:47:55;;;;;;;9.80;4.90;;;27.90;99.90;;;;;;5016597;28;20493;-70
2023/07/12 10:50:36;;;;;;;6.80;3.30;;;27.90;99.90;;;;;;5014123;28;20458;-69
2023/07/12 10:53:18;;;;;;;9.10;3.90;;;27.60;99.90;;;;;;5015670;28;20490;-70
2023/07/12 10:55:49;;;;;;;4.93;3.37;;;27.60;99.90;;;;;;5016723;28;20441;-70
2023/07/12 10:58:20;;;;;;;6.73;3.70;;;27.80;99.90;;;;;;5015319;28;20505;-70
2023/07/12 11:00:51;;;;;;;8.40;3.50;;;27.90;99.90;;;;;;5013397;28;20584;-70
2023/07/12 11:03:39;;;;;;;5.03;3.57;;;28.10;99.90;;;;;;5015376;28;20443;-70
2023/07/12 11:06:24;;;;;;;9.73;3.10;;;28.20;99.90;;;;;;5009810;28;20468;-70
2023/07/12 11:09:09;;;;;;;5.43;3.30;;;28.10;99.90;;;;;;5011956;28;21273;-70
2023/07/12 11:11:44;;;;;;;6.30;4.20;;;28.10;99.90;;;;;;5009982;28;20603;-70
2023/07/12 11:14:24;;;;;;;4.50;3.67;;;28.20;99.90;;;;;;5013675;28;20442;-70
2023/07/12 11:17:10;;;;;;;9.33;4.37;;;28.40;99.90;;;;;;5011795;28;20431;-70
2023/07/12 11:19:38;;;;;;;4.40;3.40;;;28.40;99.90;;;;;;5014801;28;21020;-70
2023/07/12 11:22:18;;;;;;;4.53;3.37;;;28.30;99.90;;;;;;5009525;28;20439;-70
2023/07/12 11:25:21;;;;;;;4.97;3.23;;;28.50;99.90;;;;;;5017687;28;20478;-70
2023/07/12 11:27:47;;;;;;;4.13;3.60;;;28.40;99.90;;;;;;5011423;28;21249;-70
2023/07/12 11:30:27;;;;;;;4.50;3.63;;;28.40;99.90;;;;;;5012669;28;20486;-70
2023/07/12 11:33:17;;;;;;;5.93;3.50;;;28.40;99.90;;;;;;5012393;28;20197;-69
2023/07/12 11:35:44;;;;;;;6.40;4.00;;;28.30;99.90;;;;;;5009489;28;20535;-70
2023/07/12 11:38:24;;;;;;;8.93;6.60;;;28.40;99.90;;;;;;5013658;28;20941;-70
2023/07/12 11:40:52;;;;;;;4.23;3.70;;;28.70;99.90;;;;;;5014209;28;20457;-69
2023/07/12 11:43:25;;;;;;;4.70;3.70;;;28.60;99.90;;;;;;5008281;28;20444;-69
2023/07/12 11:45:53;;;;;;;5.10;3.70;;;28.30;99.90;;;;;;5007844;28;20962;-68
2023/07/12 11:48:23;;;;;;;4.00;3.60;;;28.30;99.90;;;;;;5016468;28;20835;-68
2023/07/12 11:50:50;;;;;;;6.20;3.63;;;28.40;99.90;;;;;;5015592;28;20613;-68
2023/07/12 11:53:16;;;;;;;4.30;3.50;;;28.40;99.90;;;;;;5017699;28;20438;-69
2023/07/12 11:55:42;;;;;;;5.10;3.43;;;28.50;99.90;;;;;;5011318;28;20439;-68
2023/07/12 11:58:21;;;;;;;4.20;3.50;;;28.40;99.90;;;;;;5017876;28;20200;-69
2023/07/12 12:00:53;;;;;;;5.50;3.60;;;28.40;99.90;;;;;;5014008;28;20196;-69
2023/07/12 12:03:19;;;;;;;4.90;3.43;;;28.60;99.90;;;;;;5017760;28;20523;-69
2023/07/12 12:05:46;;;;;;;3.77;3.27;;;28.70;99.90;;;;;;5016497;28;20521;-69
2023/07/12 12:08:27;;;;;;;3.47;3.17;;;28.70;99.90;;;;;;5014868;28;20717;-68
2023/07/12 12:10:54;;;;;;;3.83;3.40;;;28.90;99.90;;;;;;5017196;28;20470;-69
2023/07/12 12:13:19;;;;;;;5.97;3.40;;;29.70;99.90;;;;;;5012428;28;20431;-70
2023/07/12 12:16:06;;;;;;;5.17;3.80;;;30.30;99.90;;;;;;5016582;28;20468;-70
2023/07/12 12:18:34;;;;;;;5.30;3.70;;;30.60;98.50;;;;;;5019143;28;20235;-71
2023/07/12 12:21:05;;;;;;;5.10;3.23;;;31.00;97.90;;;;;;5011998;28;20471;-70
2023/07/12 12:23:38;;;;;;;8.17;3.60;;;31.40;97.00;;;;;;5015562;28;20514;-69
2023/07/12 12:26:24;;;;;;;6.83;4.37;;;31.40;95.40;;;;;;5014624;28;20489;-69
2023/07/12 12:28:52;;;;;;;3.40;3.10;;;31.20;94.70;;;;;;5015874;28;20464;-70
2023/07/12 12:31:21;;;;;;;5.13;4.00;;;31.20;94.20;;;;;;5014529;28;20459;-71
2023/07/12 12:33:59;;;;;;;8.70;3.70;;;30.90;94.10;;;;;;5014195;28;20925;-71
2023/07/12 12:36:27;;;;;;;3.87;3.53;;;30.90;94.00;;;;;;5014011;28;20433;-70
2023/07/12 12:39:20;;;;;;;5.20;3.67;;;30.90;93.30;;;;;;5015412;28;21147;-70
2023/07/12 12:41:54;;;;;;;5.03;3.57;;;30.80;93.00;;;;;;5015734;28;20431;-71
2023/07/12 12:44:21;;;;;;;5.13;3.50;;;30.70;92.90;;;;;;5018465;28;20524;-70
2023/07/12 12:46:52;;;;;;;4.00;3.60;;;30.60;91.80;;;;;;5015995;28;20439;-70
2023/07/12 12:49:25;;;;;;;4.07;3.67;;;30.70;92.00;;;;;;5013670;28;20465;-70
2023/07/12 12:51:53;;;;;;;3.90;3.40;;;30.80;90.60;;;;;;5013080;28;20554;-70
2023/07/12 12:54:19;;;;;;;4.57;4.17;;;30.90;91.40;;;;;;5014451;28;20483;-71